createdAt,value
2023-05-12T00:02:22.416Z,4.40
2023-05-12T00:05:25.511Z,4.82
2023-05-12T00:08:28.324Z,5.07
2023-05-12T00:11:31.033Z,4.97
2023-05-12T00:14:33.934Z,4.72
2023-05-12T00:17:36.956Z,4.17
2023-05-12T00:20:39.948Z,4.57
2023-05-12T00:23:42.947Z,4.25
2023-05-12T00:26:45.809Z,4.25
2023-05-12T00:29:48.640Z,5.60
2023-05-12T00:32:51.645Z,4.67
2023-05-12T00:35:54.370Z,4.07
2023-05-12T00:38:57.329Z,5.13
2023-05-12T00:42:00.452Z,4.82
2023-05-12T00:45:04.736Z,4.22
2023-05-12T00:48:07.997Z,4.53
2023-05-12T00:51:12.449Z,4.78
2023-05-12T00:54:16.220Z,4.55
2023-05-12T00:57:20.996Z,4.65
2023-05-12T01:00:23.679Z,4.15
2023-05-12T01:03:26.726Z,4.70
2023-05-12T01:06:38.339Z,4.43
2023-05-12T01:09:42.224Z,4.68
2023-05-12T01:12:46.190Z,4.28
2023-05-12T01:15:50.152Z,4.18
2023-05-12T01:18:56.217Z,4.33
2023-05-12T01:22:00.374Z,4.63
2023-05-12T01:25:05.888Z,5.00
2023-05-12T01:28:09.609Z,4.32
2023-05-12T01:31:13.945Z,4.18
2023-05-12T01:34:18.726Z,4.83
2023-05-12T01:37:28.413Z,4.25
2023-05-12T01:40:32.403Z,4.07
2023-05-12T01:43:35.705Z,4.15
2023-05-12T01:46:38.489Z,4.63
2023-05-12T01:49:41.383Z,5.27
2023-05-12T01:52:48.556Z,4.30
2023-05-12T01:55:53.139Z,3.63
2023-05-12T01:58:56.873Z,4.47
2023-05-12T02:01:59.705Z,4.40
2023-05-12T02:05:07.376Z,4.47
2023-05-12T02:08:10.164Z,4.35
2023-05-12T02:11:12.909Z,4.22
2023-05-12T02:14:15.992Z,4.00
2023-05-12T02:17:18.767Z,4.05
2023-05-12T02:20:23.608Z,4.77
2023-05-12T02:23:26.362Z,4.03
2023-05-12T02:26:29.164Z,4.50
2023-05-12T02:29:31.896Z,4.47
2023-05-12T02:32:35.110Z,5.20
2023-05-12T02:35:38.119Z,4.27
2023-05-12T02:38:41.375Z,4.57
2023-05-12T02:41:44.248Z,4.57
2023-05-12T02:44:47.317Z,4.90
2023-05-12T02:47:50.178Z,4.25
2023-05-12T02:50:52.959Z,4.50
2023-05-12T02:53:55.892Z,4.55
2023-05-12T02:56:59.926Z,4.22
2023-05-12T03:00:07.178Z,3.88
2023-05-12T03:03:13.192Z,4.40
2023-05-12T03:06:16.270Z,4.03
2023-05-12T03:09:19.089Z,3.92
2023-05-12T03:12:22.044Z,4.20
2023-05-12T03:15:24.790Z,3.80
2023-05-12T03:18:29.059Z,3.90
2023-05-12T03:21:31.986Z,3.37
2023-05-12T03:24:35.588Z,3.60
2023-05-12T03:27:38.348Z,3.85
2023-05-12T03:30:41.109Z,3.40
2023-05-12T03:33:43.800Z,3.90
2023-05-12T03:36:46.653Z,3.90
2023-05-12T03:39:49.823Z,4.15
2023-05-12T03:42:52.605Z,3.75
2023-05-12T03:45:55.313Z,4.15
2023-05-12T03:48:59.021Z,4.15
2023-05-12T03:52:01.720Z,3.73
2023-05-12T03:55:08.775Z,4.30
2023-05-12T03:58:11.524Z,3.60
2023-05-12T04:01:14.330Z,3.85
2023-05-12T04:04:17.158Z,3.70
2023-05-12T04:07:20.468Z,3.93
2023-05-12T04:10:23.687Z,4.05
2023-05-12T04:13:27.274Z,4.15
2023-05-12T04:16:29.956Z,3.78
2023-05-12T04:19:34.557Z,4.00
2023-05-12T04:22:37.273Z,4.10
2023-05-12T04:25:40.566Z,3.58
2023-05-12T04:28:43.381Z,4.05
2023-05-12T04:31:47.010Z,4.32
2023-05-12T04:34:51.753Z,3.60
2023-05-12T04:37:54.610Z,4.00
2023-05-12T04:41:01.279Z,4.18
2023-05-12T04:44:04.473Z,3.90
2023-05-12T04:47:07.459Z,3.70
2023-05-12T04:50:10.982Z,4.25
2023-05-12T04:53:14.066Z,4.20
2023-05-12T04:56:17.138Z,3.33
2023-05-12T04:59:20.842Z,3.40
2023-05-12T05:02:28.148Z,3.70
2023-05-12T05:05:30.998Z,4.00
2023-05-12T05:08:33.796Z,3.87
2023-05-12T05:11:36.591Z,3.78
2023-05-12T05:14:39.377Z,3.63
2023-05-12T05:17:43.331Z,3.58
2023-05-12T05:20:54.366Z,4.28
2023-05-12T05:24:00.754Z,3.60
2023-05-12T05:27:04.544Z,3.72
2023-05-12T05:30:11.073Z,4.05
2023-05-12T05:33:15.478Z,3.88
2023-05-12T05:36:18.394Z,4.00
2023-05-12T05:39:21.294Z,4.30
2023-05-12T05:42:24.216Z,3.95
2023-05-12T05:45:28.164Z,4.05
2023-05-12T05:48:31.594Z,3.67
2023-05-12T05:51:34.508Z,3.78
2023-05-12T05:54:37.305Z,3.60
2023-05-12T05:57:40.165Z,4.28
2023-05-12T06:00:43.728Z,3.00
2023-05-12T06:03:46.758Z,3.67
2023-05-12T06:06:49.660Z,3.92
2023-05-12T06:09:55.755Z,3.97
2023-05-12T06:12:58.506Z,4.05
2023-05-12T06:16:01.218Z,3.70
2023-05-12T06:19:04.107Z,3.60
2023-05-12T06:22:06.959Z,3.28
2023-05-12T06:25:09.902Z,3.90
2023-05-12T06:28:14.107Z,3.28
2023-05-12T06:31:17.107Z,4.22
2023-05-12T06:34:19.880Z,3.97
2023-05-12T06:37:22.589Z,3.85
2023-05-12T06:40:25.294Z,3.17
2023-05-12T06:43:29.208Z,3.35
2023-05-12T06:46:34.819Z,4.22
2023-05-12T06:49:38.814Z,3.70
2023-05-12T06:52:41.659Z,3.70
2023-05-12T06:55:46.555Z,3.70
2023-05-12T06:58:52.504Z,3.55
2023-05-12T07:35:58.428Z,4.57
2023-05-12T07:39:01.724Z,4.60
2023-05-12T07:42:04.782Z,4.63
2023-05-12T07:45:08.033Z,4.82
2023-05-12T07:48:13.191Z,5.00
2023-05-12T07:51:16.361Z,4.97
2023-05-12T07:54:19.048Z,6.32
2023-05-12T07:57:21.834Z,5.53
2023-05-12T08:00:25.462Z,5.40
2023-05-12T08:03:28.224Z,6.22
2023-05-12T08:06:31.256Z,6.00
2023-05-12T08:09:34.928Z,6.20
2023-05-12T08:12:38.946Z,5.70
2023-05-12T08:15:41.793Z,6.43
2023-05-12T08:18:44.814Z,6.10
2023-05-12T08:21:47.589Z,6.70
2023-05-12T08:24:52.782Z,6.15
2023-05-12T08:27:55.989Z,7.25
2023-05-12T08:31:04.791Z,6.88
2023-05-12T08:34:10.953Z,6.93
2023-05-12T08:37:16.276Z,6.50
2023-05-12T08:40:22.344Z,6.68
2023-05-12T08:43:26.906Z,7.70
2023-05-12T08:46:37.105Z,7.20
2023-05-12T08:49:40.638Z,6.55
2023-05-12T08:52:43.650Z,7.33
2023-05-12T08:56:01.172Z,7.55
2023-05-12T08:59:10.663Z,7.10
2023-05-12T09:02:14.522Z,8.32
2023-05-12T09:05:17.524Z,7.55
2023-05-12T09:08:20.574Z,5.83
2023-05-12T09:11:23.421Z,6.15
2023-05-12T09:14:26.522Z,6.47
2023-05-12T09:17:29.304Z,5.63
2023-05-12T09:20:32.333Z,6.10
2023-05-12T09:23:35.203Z,5.73
2023-05-12T09:26:52.550Z,5.97
2023-05-12T09:29:59.720Z,5.95
2023-05-12T09:33:23.088Z,5.90
2023-05-12T09:36:26.281Z,6.40
2023-05-12T09:39:29.210Z,6.30
2023-05-12T09:42:33.092Z,5.95
2023-05-12T09:45:37.246Z,6.35
2023-05-12T09:48:40.054Z,6.47
2023-05-12T09:51:42.828Z,6.70
2023-05-12T09:54:48.547Z,6.30
2023-05-12T09:57:55.142Z,5.80
2023-05-12T10:01:21.056Z,6.72
2023-05-12T10:04:22.653Z,6.65
2023-05-12T10:07:27.982Z,7.32
2023-05-12T10:10:33.406Z,7.07
2023-05-12T10:13:36.665Z,7.53
2023-05-12T10:16:41.393Z,8.20
2023-05-12T10:19:45.028Z,7.90
2023-05-12T10:22:49.426Z,7.82
2023-05-12T10:25:54.565Z,7.83
2023-05-12T10:28:58.326Z,7.93
2023-05-12T10:32:01.549Z,8.73
2023-05-12T10:35:12.670Z,9.40
2023-05-12T10:38:22.137Z,10.60
2023-05-12T10:41:32.486Z,9.93
2023-05-12T10:44:36.445Z,10.85
2023-05-12T10:47:39.225Z,10.05
2023-05-12T10:50:54.171Z,8.93
2023-05-12T10:54:04.973Z,9.02
2023-05-12T10:57:17.076Z,8.07
2023-05-12T11:00:27.032Z,9.98
2023-05-12T11:03:30.703Z,9.95
2023-05-12T11:06:34.316Z,10.20
2023-05-12T11:09:47.986Z,10.30
2023-05-12T11:12:59.432Z,9.70
2023-05-12T11:16:02.323Z,10.10
2023-05-12T11:19:06.034Z,11.02
2023-05-12T11:22:13.224Z,10.70
2023-05-12T11:25:16.354Z,10.63
2023-05-12T11:28:19.206Z,10.73
2023-05-12T11:31:23.220Z,11.50
2023-05-12T11:34:29.892Z,10.15
2023-05-12T11:37:38.083Z,10.10
2023-05-12T11:40:41.454Z,10.05
2023-05-12T11:43:44.171Z,11.07
2023-05-12T11:47:06.320Z,10.38
2023-05-12T11:50:09.489Z,9.45
2023-05-12T11:53:15.141Z,9.77
2023-05-12T11:56:22.076Z,10.02
2023-05-12T11:59:32.791Z,12.23
2023-05-12T12:02:39.856Z,9.60
2023-05-12T12:05:45.490Z,8.48
2023-05-12T12:08:54.784Z,8.23
2023-05-12T12:11:57.509Z,8.80
2023-05-12T12:15:00.839Z,9.93
2023-05-12T12:18:03.921Z,8.23
2023-05-12T12:21:06.790Z,7.57
2023-05-12T12:24:09.516Z,7.50
2023-05-12T12:27:12.473Z,7.53
2023-05-12T12:30:17.111Z,6.93
2023-05-12T12:33:20.675Z,6.15
2023-05-12T12:36:23.538Z,6.72
2023-05-12T12:39:26.208Z,7.10
2023-05-12T12:42:28.951Z,6.20
2023-05-12T12:45:31.621Z,5.70
2023-05-12T12:48:34.356Z,6.30
2023-05-12T12:51:45.588Z,5.63
2023-05-12T12:54:49.330Z,5.85
2023-05-12T12:57:52.020Z,6.07
2023-05-12T13:00:54.784Z,5.73
2023-05-12T13:03:57.522Z,5.93
2023-05-12T13:07:00.226Z,5.40
2023-05-12T13:10:04.025Z,5.63
2023-05-12T13:13:07.399Z,5.90
2023-05-12T13:16:10.114Z,5.50
2023-05-12T13:19:13.088Z,5.18
2023-05-12T13:22:16.957Z,4.95
2023-05-12T13:25:19.940Z,4.88
2023-05-12T13:28:22.786Z,4.78
2023-05-12T13:31:26.127Z,4.80
2023-05-12T13:34:28.892Z,4.07
2023-05-12T13:37:31.855Z,4.50
2023-05-12T13:40:34.614Z,4.22
2023-05-12T13:43:38.074Z,4.05
2023-05-12T13:46:40.848Z,3.77
2023-05-12T13:49:43.648Z,4.55
2023-05-12T13:52:47.742Z,3.85
2023-05-12T13:55:50.472Z,4.43
2023-05-12T13:58:53.203Z,4.32
2023-05-12T14:01:56.053Z,3.97
2023-05-12T14:04:58.883Z,3.63
2023-05-12T14:08:01.597Z,4.35
2023-05-12T14:11:04.485Z,4.30
2023-05-12T14:14:07.986Z,4.68
2023-05-12T14:17:10.741Z,4.73
2023-05-12T14:20:13.472Z,5.05
2023-05-12T14:23:16.823Z,3.97
2023-05-12T14:26:19.798Z,4.40
2023-05-12T14:29:23.099Z,4.15
2023-05-12T14:32:25.833Z,4.63
2023-05-12T14:35:28.794Z,4.53
2023-05-12T14:38:31.717Z,4.97
2023-05-12T14:41:34.661Z,4.78
2023-05-12T14:44:37.667Z,4.40
2023-05-12T14:47:40.596Z,5.10
2023-05-12T14:50:43.692Z,4.93
2023-05-12T14:53:46.444Z,4.60
2023-05-12T14:56:49.080Z,5.18
2023-05-12T14:59:56.430Z,4.47
2023-05-12T15:02:59.408Z,4.90
2023-05-12T15:06:06.482Z,4.50
2023-05-12T15:09:09.930Z,4.50
2023-05-12T15:12:12.616Z,4.68
2023-05-12T15:15:15.346Z,5.47
2023-05-12T15:18:18.072Z,4.83
2023-05-12T15:21:20.817Z,4.72
2023-05-12T15:24:23.543Z,4.60
2023-05-12T15:27:26.824Z,5.20
2023-05-12T15:30:29.512Z,5.70
2023-05-12T15:33:36.937Z,4.57
2023-05-12T15:36:40.064Z,5.35
2023-05-12T15:39:43.505Z,5.53
2023-05-12T15:42:47.711Z,4.93
2023-05-12T15:45:50.464Z,5.53
2023-05-12T15:48:53.169Z,5.33
2023-05-12T15:51:55.891Z,5.05
2023-05-12T15:54:58.729Z,4.68
2023-05-12T15:58:03.576Z,4.57
2023-05-12T16:01:06.806Z,4.47
2023-05-12T16:04:09.679Z,4.97
2023-05-12T16:07:12.440Z,4.72
2023-05-12T16:10:15.225Z,4.78
2023-05-12T16:13:17.988Z,4.35
2023-05-12T16:16:20.838Z,4.63
2023-05-12T16:19:23.666Z,4.17
2023-05-12T16:22:26.408Z,4.25
2023-05-12T16:25:29.347Z,4.72
2023-05-12T16:28:35.059Z,4.05
2023-05-12T16:31:37.993Z,4.82
2023-05-12T16:34:40.765Z,4.30
2023-05-12T16:37:43.636Z,4.22
2023-05-12T16:40:46.677Z,5.30
2023-05-12T16:43:49.387Z,4.85
2023-05-12T16:46:52.058Z,5.28
2023-05-12T16:49:54.809Z,4.33
2023-05-12T16:52:57.499Z,4.70
2023-05-12T16:56:00.367Z,4.72
2023-05-12T16:59:03.751Z,4.65
2023-05-12T17:02:07.007Z,4.68
2023-05-12T17:05:10.076Z,4.77
2023-05-12T17:08:13.381Z,4.88
2023-05-12T17:11:16.417Z,4.38
2023-05-12T17:14:19.446Z,4.35
2023-05-12T17:17:22.316Z,4.63
2023-05-12T17:20:25.144Z,4.53
2023-05-12T17:23:28.376Z,5.38
2023-05-12T17:26:31.053Z,5.03
2023-05-12T17:29:33.768Z,5.00
2023-05-12T17:32:36.570Z,4.65
2023-05-12T17:35:39.571Z,5.40
2023-05-12T17:38:42.334Z,4.85
2023-05-12T17:41:45.066Z,4.32
2023-05-12T17:44:47.802Z,4.50
2023-05-12T17:47:51.364Z,4.88
2023-05-12T17:50:54.153Z,5.00
2023-05-12T17:53:57.039Z,5.25
2023-05-12T17:57:00.038Z,5.03
2023-05-12T18:00:10.305Z,5.03
2023-05-12T18:03:23.833Z,4.63
2023-05-12T18:06:26.996Z,4.03
2023-05-12T18:09:30.442Z,4.28
2023-05-12T18:12:33.182Z,4.93
2023-05-12T18:15:36.224Z,4.68
2023-05-12T18:18:39.142Z,4.63
2023-05-12T18:21:41.898Z,4.03
2023-05-12T18:24:45.851Z,4.38
2023-05-12T18:27:49.075Z,4.40
2023-05-12T18:30:52.257Z,4.15
2023-05-12T18:33:56.359Z,4.22
2023-05-12T18:36:59.357Z,4.40
2023-05-12T18:40:02.138Z,4.30
2023-05-12T18:43:04.927Z,3.85
2023-05-12T18:46:07.739Z,3.97
2023-05-12T18:49:10.608Z,4.22
2023-05-12T18:52:13.389Z,4.43
2023-05-12T18:55:16.146Z,4.20
2023-05-12T18:58:19.130Z,4.68
2023-05-12T19:01:22.210Z,4.40
2023-05-12T19:04:25.059Z,5.03
2023-05-12T19:07:27.788Z,4.03
2023-05-12T19:10:30.867Z,4.20
2023-05-12T19:13:33.688Z,4.45
2023-05-12T19:16:38.044Z,4.30
2023-05-12T19:19:40.928Z,4.60
2023-05-12T19:22:44.215Z,4.63
2023-05-12T19:25:46.956Z,4.18
2023-05-12T19:28:49.702Z,3.95
2023-05-12T19:31:53.346Z,3.67
2023-05-12T19:34:56.293Z,4.22
2023-05-12T19:37:58.937Z,4.77
2023-05-12T19:41:01.712Z,4.32
2023-05-12T19:44:04.472Z,4.10
2023-05-12T19:47:08.791Z,4.10
2023-05-12T19:50:11.617Z,4.57
2023-05-12T19:53:14.368Z,4.53
2023-05-12T19:56:18.860Z,3.72
2023-05-12T19:59:21.688Z,4.13
2023-05-12T20:02:30.971Z,3.70
2023-05-12T20:05:37.800Z,4.35
2023-05-12T20:08:40.739Z,4.40
2023-05-12T20:11:43.434Z,3.83
2023-05-12T20:14:46.248Z,4.15
2023-05-12T20:17:49.074Z,4.18
2023-05-12T20:20:51.815Z,4.20
2023-05-12T20:23:54.566Z,4.40
2023-05-12T20:26:57.324Z,4.40
2023-05-12T20:30:00.189Z,4.20
2023-05-12T20:33:03.018Z,4.32
2023-05-12T20:36:06.069Z,4.60
2023-05-12T20:39:10.181Z,4.27
2023-05-12T20:42:13.255Z,4.40
2023-05-12T20:45:16.215Z,4.40
2023-05-12T20:48:18.971Z,5.15
2023-05-12T20:51:21.716Z,5.20
2023-05-12T20:54:24.488Z,5.17
2023-05-12T20:57:27.437Z,5.00
2023-05-12T21:00:30.238Z,4.50
2023-05-12T21:03:33.677Z,4.78
2023-05-12T21:06:37.109Z,4.47
2023-05-12T21:09:39.863Z,4.67
2023-05-12T21:12:42.725Z,4.85
2023-05-12T21:15:45.409Z,4.68
2023-05-12T21:18:48.705Z,4.00
2023-05-12T21:21:51.653Z,4.88
2023-05-12T21:24:54.505Z,5.60
2023-05-12T21:27:57.184Z,5.15
2023-05-12T21:30:59.867Z,5.65
2023-05-12T21:34:02.626Z,4.97
2023-05-12T21:37:05.577Z,5.10
2023-05-12T21:40:08.972Z,5.13
2023-05-12T21:43:11.763Z,5.03
2023-05-12T21:46:14.577Z,5.55
2023-05-12T21:49:17.327Z,4.80
2023-05-12T21:52:20.066Z,5.32
2023-05-12T21:55:22.882Z,5.53
2023-05-12T21:58:26.217Z,5.55
2023-05-12T22:01:29.908Z,5.35
2023-05-12T22:04:32.750Z,6.00
2023-05-12T22:07:35.496Z,5.30
2023-05-12T22:10:38.300Z,5.40
2023-05-12T22:13:41.394Z,5.57
2023-05-12T22:16:44.145Z,5.57
2023-05-12T22:19:47.272Z,5.85
2023-05-12T22:22:50.273Z,5.88
2023-05-12T22:25:53.039Z,5.23
2023-05-12T22:28:55.833Z,5.82
2023-05-12T22:31:58.577Z,5.03
2023-05-12T22:35:01.395Z,5.28
2023-05-12T22:38:04.240Z,5.53
2023-05-12T22:41:06.969Z,5.47
2023-05-12T22:44:09.908Z,5.03
2023-05-12T22:47:12.997Z,5.57
2023-05-12T22:50:16.176Z,5.32
2023-05-12T22:53:18.831Z,6.10
2023-05-12T22:56:21.685Z,5.73
2023-05-12T22:59:24.356Z,5.18
2023-05-12T23:02:27.097Z,6.00
2023-05-12T23:05:29.857Z,6.20
2023-05-12T23:08:32.544Z,6.03
2023-05-12T23:11:35.495Z,6.37
2023-05-12T23:14:38.196Z,5.82
2023-05-12T23:17:41.002Z,6.30
2023-05-12T23:20:43.771Z,6.30
2023-05-12T23:23:46.529Z,6.50
2023-05-12T23:26:50.371Z,6.40
2023-05-12T23:29:53.502Z,6.65
2023-05-12T23:32:56.289Z,6.13
2023-05-12T23:35:59.014Z,6.93
2023-05-12T23:39:01.720Z,6.30
2023-05-12T23:42:04.626Z,6.33
2023-05-12T23:45:07.713Z,6.30
2023-05-12T23:48:10.489Z,5.82
2023-05-12T23:51:13.147Z,6.38
2023-05-12T23:54:15.844Z,5.88
2023-05-12T23:57:18.561Z,6.47
